Time;durP1;ratioP1;P1;durP2;ratioP2;P2;SDS_P1;SDS_P2;PMS_P1;PMS_P2;Temp;Humidity;BMP_temperature;BMP_pressure;BME280_temperature;BME280_humidity;BME280_pressure;Samples;Min_cycle;Max_cycle;Signal;HPM_P1;HPM_P2
2023/12/15 00:01:02;;;;;;;43.50;22.48;;;5.60;99.90;;;;;;5051377;28;20080;-76
2023/12/15 00:03:28;;;;;;;51.75;21.88;;;5.60;99.90;;;;;;5048776;28;20131;-77
2023/12/15 00:05:54;;;;;;;42.03;20.67;;;5.60;99.90;;;;;;5058343;28;20044;-75
2023/12/15 00:08:20;;;;;;;40.92;21.50;;;5.60;99.90;;;;;;5065577;28;20480;-75
2023/12/15 00:10:45;;;;;;;36.92;19.25;;;5.70;99.90;;;;;;5062826;28;20083;-75
2023/12/15 00:13:11;;;;;;;41.72;20.23;;;5.70;99.90;;;;;;5064738;28;20100;-75
2023/12/15 00:15:37;;;;;;;39.08;19.55;;;5.80;99.90;;;;;;5052905;28;20129;-77
2023/12/15 00:18:02;;;;;;;38.20;21.02;;;5.60;99.90;;;;;;5061898;28;20121;-75
2023/12/15 00:20:28;;;;;;;43.58;21.17;;;5.70;99.90;;;;;;5068916;28;20100;-75
2023/12/15 00:22:54;;;;;;;45.38;21.67;;;5.70;99.90;;;;;;5070164;28;20057;-75
2023/12/15 00:25:20;;;;;;;49.08;23.27;;;5.70;99.90;;;;;;5065204;28;20480;-75
2023/12/15 00:27:46;;;;;;;44.47;22.40;;;5.70;99.90;;;;;;5064934;28;20048;-75
2023/12/15 00:30:12;;;;;;;43.25;21.63;;;5.80;99.90;;;;;;5064887;28;20217;-75
2023/12/15 00:32:38;;;;;;;51.00;24.30;;;5.70;99.90;;;;;;5056153;28;20077;-76
2023/12/15 00:35:04;;;;;;;47.60;22.67;;;5.70;99.90;;;;;;5062845;28;20040;-75
2023/12/15 00:37:29;;;;;;;42.35;20.67;;;5.70;99.90;;;;;;5056109;28;20044;-75
2023/12/15 00:39:55;;;;;;;45.15;21.85;;;5.70;99.90;;;;;;5054260;28;20145;-75
2023/12/15 00:42:21;;;;;;;47.95;23.63;;;5.80;99.90;;;;;;5065959;28;20037;-75
2023/12/15 00:44:46;;;;;;;47.72;23.02;;;5.90;99.90;;;;;;5061572;28;20056;-75
2023/12/15 00:47:12;;;;;;;44.50;23.45;;;5.80;99.90;;;;;;5054435;28;20044;-76
2023/12/15 00:49:37;;;;;;;47.75;24.30;;;5.80;99.90;;;;;;5065053;28;20170;-76
2023/12/15 00:52:03;;;;;;;49.13;24.85;;;5.80;99.90;;;;;;5060222;28;20040;-75
2023/12/15 00:54:29;;;;;;;44.47;22.65;;;5.80;99.90;;;;;;5065082;28;20044;-75
2023/12/15 00:56:55;;;;;;;51.58;24.40;;;5.80;99.90;;;;;;5057461;28;20114;-75
2023/12/15 00:59:20;;;;;;;53.78;26.30;;;5.80;99.90;;;;;;5056485;28;20049;-75
2023/12/15 01:01:46;;;;;;;50.65;25.48;;;5.80;99.90;;;;;;5052196;28;20049;-75
2023/12/15 01:04:11;;;;;;;47.40;23.70;;;5.90;99.90;;;;;;5063888;28;20041;-75
2023/12/15 01:06:37;;;;;;;55.67;25.88;;;5.90;99.90;;;;;;5052061;28;20468;-76
2023/12/15 01:09:03;;;;;;;53.72;26.88;;;5.90;99.90;;;;;;5059738;28;20469;-76
2023/12/15 01:11:29;;;;;;;55.15;27.48;;;5.90;99.90;;;;;;5058892;28;20127;-75
2023/12/15 01:13:54;;;;;;;54.15;25.70;;;5.90;99.90;;;;;;5060130;28;20136;-75
2023/12/15 01:16:20;;;;;;;56.30;26.60;;;5.90;99.90;;;;;;5059353;28;20132;-76
2023/12/15 01:18:45;;;;;;;52.83;24.80;;;5.90;99.90;;;;;;5060802;28;20092;-75
2023/12/15 01:21:11;;;;;;;40.97;20.60;;;5.90;99.90;;;;;;5066579;28;20102;-75
2023/12/15 01:23:37;;;;;;;65.28;28.98;;;5.90;99.90;;;;;;5063384;28;20078;-75
2023/12/15 01:26:03;;;;;;;57.10;25.52;;;5.90;99.90;;;;;;5064066;28;20136;-75
2023/12/15 01:28:29;;;;;;;64.90;27.20;;;5.90;99.90;;;;;;5055424;28;20496;-75
2023/12/15 01:30:55;;;;;;;64.72;27.50;;;6.00;99.90;;;;;;5063710;28;20103;-75
2023/12/15 01:33:20;;;;;;;52.65;24.20;;;6.00;99.90;;;;;;5069622;28;20045;-75
2023/12/15 01:35:46;;;;;;;70.35;30.00;;;6.00;99.90;;;;;;5053133;28;20547;-75
2023/12/15 01:38:12;;;;;;;68.75;29.10;;;6.00;99.90;;;;;;5060221;28;20388;-77
2023/12/15 01:40:37;;;;;;;51.92;25.35;;;6.00;99.90;;;;;;5040507;28;20044;-75
2023/12/15 01:43:03;;;;;;;61.10;25.65;;;6.00;99.90;;;;;;5058734;28;20044;-76
2023/12/15 01:45:29;;;;;;;64.93;30.63;;;6.00;99.90;;;;;;5065605;28;20036;-76
2023/12/15 01:47:55;;;;;;;74.68;29.38;;;6.00;99.90;;;;;;5042656;28;20489;-76
2023/12/15 01:50:21;;;;;;;76.53;33.38;;;6.00;99.90;;;;;;5066049;28;20291;-77
2023/12/15 01:52:46;;;;;;;74.53;31.60;;;6.10;99.90;;;;;;5057286;28;20045;-75
2023/12/15 01:55:12;;;;;;;73.88;31.73;;;6.10;99.90;;;;;;5067516;28;20040;-77
2023/12/15 01:57:38;;;;;;;76.68;31.63;;;6.10;99.90;;;;;;5064800;28;20045;-76
2023/12/15 02:00:07;;;;;;;74.68;31.20;;;6.10;99.90;;;;;;5057278;28;20402;-76
2023/12/15 02:02:33;;;;;;;89.47;32.55;;;6.10;99.90;;;;;;5069496;28;20131;-76
2023/12/15 02:05:00;;;;;;;85.95;35.95;;;6.10;99.90;;;;;;5065424;28;20049;-75
2023/12/15 02:07:25;;;;;;;77.68;33.85;;;6.10;99.90;;;;;;5047318;28;20055;-75
2023/12/15 02:09:51;;;;;;;80.13;31.85;;;6.20;99.90;;;;;;5061812;28;20044;-75
2023/12/15 02:12:17;;;;;;;80.18;32.42;;;6.40;99.90;;;;;;5038498;28;20053;-75
2023/12/15 02:14:43;;;;;;;78.35;32.88;;;6.20;99.90;;;;;;5067530;28;20044;-75
2023/12/15 02:17:11;;;;;;;91.28;35.72;;;6.20;99.90;;;;;;5055668;28;20041;-75
2023/12/15 02:19:37;;;;;;;87.65;33.50;;;6.20;99.90;;;;;;5055890;28;20130;-75
2023/12/15 02:22:03;;;;;;;73.15;30.60;;;6.20;99.90;;;;;;5050224;28;20057;-75
2023/12/15 02:24:28;;;;;;;83.43;31.75;;;6.20;99.90;;;;;;5053286;28;20043;-76
2023/12/15 02:26:54;;;;;;;85.60;35.22;;;6.20;99.90;;;;;;5061073;28;20040;-75
2023/12/15 02:29:20;;;;;;;78.30;32.50;;;6.30;99.90;;;;;;5062250;28;20041;-76
2023/12/15 02:31:46;;;;;;;75.97;31.77;;;6.30;99.90;;;;;;5061355;28;20240;-75
2023/12/15 02:34:11;;;;;;;84.88;32.63;;;6.20;99.90;;;;;;5067353;28;20482;-75
2023/12/15 02:36:37;;;;;;;70.80;30.52;;;6.30;99.90;;;;;;5067626;28;20048;-75
2023/12/15 02:39:03;;;;;;;75.45;33.17;;;6.30;99.90;;;;;;5061265;28;20133;-77
2023/12/15 02:41:32;;;;;;;78.35;33.10;;;6.30;99.90;;;;;;5053031;28;20055;-75
2023/12/15 02:43:58;;;;;;;74.53;32.20;;;6.50;99.90;;;;;;5059416;28;20064;-76
2023/12/15 02:46:24;;;;;;;82.00;35.17;;;6.30;99.90;;;;;;5055492;28;20514;-76
2023/12/15 02:48:49;;;;;;;67.43;30.75;;;6.40;99.90;;;;;;5057613;28;20045;-76
2023/12/15 02:51:28;;;;;;;79.93;32.15;;;6.30;99.90;;;;;;5062088;28;20072;-76
2023/12/15 02:53:56;;;;;;;63.17;27.90;;;6.40;99.90;;;;;;5057798;28;20053;-76
2023/12/15 02:56:22;;;;;;;77.30;31.75;;;6.40;99.90;;;;;;5065665;28;20040;-76
2023/12/15 02:58:48;;;;;;;75.03;30.75;;;6.40;99.90;;;;;;5063773;28;20092;-77
2023/12/15 03:01:13;;;;;;;80.82;35.40;;;6.40;99.90;;;;;;5053463;28;20053;-76
2023/12/15 03:03:39;;;;;;;74.97;32.22;;;6.40;99.90;;;;;;5058691;28;20045;-76
2023/12/15 03:06:05;;;;;;;84.63;33.88;;;6.40;99.90;;;;;;5053839;28;20094;-76
2023/12/15 03:08:31;;;;;;;89.97;34.78;;;6.40;99.90;;;;;;5066467;28;20519;-76
2023/12/15 03:10:57;;;;;;;80.85;32.45;;;6.40;99.90;;;;;;5048593;28;20056;-76
2023/12/15 03:13:24;;;;;;;73.90;29.70;;;6.40;99.90;;;;;;5057439;28;20094;-76
2023/12/15 03:15:50;;;;;;;75.85;31.70;;;6.40;99.90;;;;;;5052159;28;20049;-76
2023/12/15 03:18:16;;;;;;;76.38;31.50;;;6.40;99.90;;;;;;5064680;28;20082;-76
2023/12/15 03:20:42;;;;;;;84.97;34.55;;;6.40;99.90;;;;;;5052164;28;20199;-76
2023/12/15 03:23:11;;;;;;;82.63;34.03;;;6.40;99.90;;;;;;5064306;28;20109;-76
2023/12/15 03:25:36;;;;;;;74.13;33.47;;;6.40;99.90;;;;;;5039890;28;20060;-75
2023/12/15 03:28:02;;;;;;;80.90;34.40;;;6.40;99.90;;;;;;5052366;28;20044;-77
2023/12/15 03:30:28;;;;;;;85.55;36.03;;;6.40;99.90;;;;;;5046210;28;20093;-77
2023/12/15 03:32:53;;;;;;;87.47;35.63;;;6.40;99.90;;;;;;5061213;28;20045;-76
2023/12/15 03:35:19;;;;;;;81.25;35.65;;;6.40;99.90;;;;;;5059032;28;20044;-76
2023/12/15 03:37:45;;;;;;;84.13;36.17;;;6.50;99.90;;;;;;5058223;28;20048;-76
2023/12/15 03:40:11;;;;;;;86.65;37.28;;;6.40;99.90;;;;;;5062339;28;20123;-75
2023/12/15 03:42:37;;;;;;;88.55;37.17;;;6.40;99.90;;;;;;5066756;28;20059;-76
2023/12/15 03:45:04;;;;;;;85.65;34.83;;;6.40;99.90;;;;;;5059786;28;20093;-76
2023/12/15 03:47:30;;;;;;;72.25;33.17;;;6.40;99.90;;;;;;5052684;28;20045;-76
2023/12/15 03:49:56;;;;;;;92.32;35.65;;;6.40;99.90;;;;;;5060120;28;20045;-76
2023/12/15 03:52:21;;;;;;;88.82;36.15;;;6.40;99.90;;;;;;5060658;28;20044;-76
2023/12/15 03:54:47;;;;;;;74.55;30.45;;;6.40;99.90;;;;;;5070168;28;20044;-76
2023/12/15 03:57:13;;;;;;;106.47;39.10;;;6.30;99.90;;;;;;5044131;28;20060;-77
2023/12/15 03:59:39;;;;;;;92.70;34.47;;;6.40;99.90;;;;;;5058593;28;20063;-76
2023/12/15 04:02:05;;;;;;;98.35;36.25;;;6.40;99.90;;;;;;5059917;28;20053;-76
2023/12/15 04:04:32;;;;;;;89.35;35.05;;;6.40;99.90;;;;;;5063751;28;20103;-76
2023/12/15 04:06:58;;;;;;;70.15;29.30;;;6.30;99.90;;;;;;5058108;28;20053;-76
2023/12/15 04:09:24;;;;;;;79.10;33.13;;;6.30;99.90;;;;;;5068673;28;20463;-76
2023/12/15 04:11:49;;;;;;;71.68;31.25;;;6.30;99.90;;;;;;5057750;28;20072;-75
2023/12/15 04:14:15;;;;;;;87.53;33.63;;;6.30;99.90;;;;;;5045830;28;20098;-75
2023/12/15 04:16:41;;;;;;;96.05;35.40;;;6.30;99.90;;;;;;5069709;28;20118;-76
2023/12/15 04:19:07;;;;;;;91.50;33.00;;;6.30;99.90;;;;;;5058535;28;20053;-76
2023/12/15 04:21:33;;;;;;;68.50;30.50;;;6.30;99.90;;;;;;5037773;28;20139;-77
2023/12/15 04:23:58;;;;;;;87.65;33.85;;;6.30;99.90;;;;;;5054650;28;20110;-76
2023/12/15 04:26:25;;;;;;;83.30;32.53;;;6.40;99.90;;;;;;5053359;28;20045;-75
2023/12/15 04:28:51;;;;;;;84.88;32.55;;;6.30;99.90;;;;;;5056085;28;20049;-76
2023/12/15 04:31:16;;;;;;;69.47;29.65;;;6.30;99.90;;;;;;5069032;28;20033;-75
2023/12/15 04:33:42;;;;;;;64.65;30.52;;;6.30;99.90;;;;;;5073152;28;20417;-75
2023/12/15 04:36:08;;;;;;;71.20;30.52;;;6.30;99.90;;;;;;5067884;28;20091;-76
2023/12/15 04:38:35;;;;;;;81.68;30.92;;;6.30;99.90;;;;;;5059620;28;20041;-75
2023/12/15 04:41:01;;;;;;;93.55;34.33;;;6.30;99.90;;;;;;5065089;28;20044;-75
2023/12/15 04:43:27;;;;;;;81.13;31.90;;;6.30;99.90;;;;;;5064221;28;20111;-75
2023/12/15 04:45:52;;;;;;;83.07;33.38;;;6.30;99.90;;;;;;5062842;28;20143;-76
2023/12/15 04:48:18;;;;;;;81.07;30.17;;;6.30;99.90;;;;;;5066459;28;20115;-75
2023/12/15 04:50:44;;;;;;;71.35;29.17;;;6.30;99.90;;;;;;5062473;28;20048;-76
2023/12/15 04:53:10;;;;;;;61.55;28.58;;;6.30;99.90;;;;;;5064166;28;20044;-75
2023/12/15 04:55:35;;;;;;;59.22;26.10;;;6.30;99.90;;;;;;5054983;28;20116;-75
2023/12/15 04:58:01;;;;;;;75.97;29.80;;;6.30;99.90;;;;;;5061507;28;20112;-76
2023/12/15 05:00:27;;;;;;;60.45;25.75;;;6.30;99.90;;;;;;5050136;28;20041;-75
2023/12/15 05:02:52;;;;;;;71.40;29.08;;;6.30;99.90;;;;;;5056934;28;20048;-77
2023/12/15 05:05:18;;;;;;;79.25;31.00;;;6.30;99.90;;;;;;5066441;28;20049;-75
2023/12/15 05:07:44;;;;;;;64.55;26.75;;;6.30;99.90;;;;;;5059672;28;20089;-76
2023/12/15 05:10:10;;;;;;;67.40;27.20;;;6.50;99.90;;;;;;5058494;28;20487;-75
2023/12/15 05:12:37;;;;;;;69.47;29.30;;;6.30;99.90;;;;;;5065511;28;20040;-75
2023/12/15 05:15:04;;;;;;;68.55;29.23;;;6.30;99.90;;;;;;5059470;28;20787;-76
2023/12/15 05:17:30;;;;;;;76.93;31.25;;;6.30;99.90;;;;;;5058221;28;20082;-75
2023/12/15 05:19:56;;;;;;;70.97;29.70;;;6.30;99.90;;;;;;5060265;28;20056;-76
2023/12/15 05:22:22;;;;;;;75.95;28.48;;;6.30;99.90;;;;;;5053268;28;20037;-76
2023/12/15 05:24:47;;;;;;;77.70;29.05;;;6.40;99.90;;;;;;5060218;28;20400;-76
2023/12/15 05:27:13;;;;;;;62.85;25.30;;;6.30;99.90;;;;;;5057726;28;20060;-76
2023/12/15 05:29:45;;;;;;;65.10;29.45;;;6.30;99.90;;;;;;5069464;28;20048;-76
2023/12/15 05:32:11;;;;;;;63.95;26.83;;;6.40;99.90;;;;;;5063356;28;20613;-76
2023/12/15 05:34:37;;;;;;;63.90;25.25;;;6.30;99.90;;;;;;5054596;28;20817;-75
2023/12/15 05:37:03;;;;;;;62.88;26.75;;;6.30;99.90;;;;;;5060899;28;20060;-76
2023/12/15 05:39:28;;;;;;;56.08;24.05;;;6.30;99.90;;;;;;5057756;28;20043;-75
2023/12/15 05:41:54;;;;;;;64.50;24.92;;;6.20;99.90;;;;;;5060661;28;20465;-76
2023/12/15 05:44:20;;;;;;;58.78;22.92;;;6.20;99.90;;;;;;5053520;28;20164;-76
2023/12/15 05:46:45;;;;;;;47.85;24.27;;;6.20;99.90;;;;;;5064846;28;20412;-75
2023/12/15 05:49:11;;;;;;;48.83;22.02;;;6.20;99.90;;;;;;5068751;28;20041;-76
2023/12/15 05:51:38;;;;;;;50.33;24.10;;;6.10;99.90;;;;;;5033678;28;20033;-76
2023/12/15 05:54:04;;;;;;;53.08;23.38;;;6.10;99.90;;;;;;5071988;28;20139;-76
2023/12/15 05:56:29;;;;;;;50.35;21.02;;;6.10;99.90;;;;;;5064346;28;20107;-76
2023/12/15 05:58:56;;;;;;;52.33;21.75;;;6.10;99.90;;;;;;5052129;28;20053;-75
2023/12/15 06:01:22;;;;;;;37.45;19.83;;;6.00;99.90;;;;;;5054615;28;20112;-75
2023/12/15 06:03:48;;;;;;;58.58;22.40;;;6.00;99.90;;;;;;5057573;28;20057;-76
2023/12/15 06:06:14;;;;;;;43.90;20.77;;;6.30;99.90;;;;;;5054634;28;20419;-76
2023/12/15 06:08:40;;;;;;;52.78;21.70;;;5.90;99.90;;;;;;5054852;28;20041;-76
2023/12/15 06:11:05;;;;;;;51.63;21.48;;;5.90;99.90;;;;;;5061355;28;20045;-76
2023/12/15 06:13:31;;;;;;;54.30;21.98;;;5.80;99.90;;;;;;5061000;28;20076;-75
2023/12/15 06:15:57;;;;;;;52.45;22.25;;;5.80;99.90;;;;;;5061134;28;20078;-76
2023/12/15 06:18:22;;;;;;;51.83;22.67;;;5.80;99.90;;;;;;5064826;28;20510;-76
2023/12/15 06:20:48;;;;;;;48.47;21.17;;;5.80;99.90;;;;;;5052232;28;20065;-77
2023/12/15 06:23:14;;;;;;;53.88;22.05;;;5.80;99.90;;;;;;5069826;28;20048;-77
2023/12/15 06:25:40;;;;;;;53.42;21.73;;;5.80;99.90;;;;;;5047076;28;20048;-76
2023/12/15 06:28:09;;;;;;;51.40;21.92;;;5.80;99.90;;;;;;5061749;28;20052;-76
2023/12/15 06:30:36;;;;;;;49.83;21.45;;;5.80;99.90;;;;;;5059193;28;20037;-76
2023/12/15 06:33:04;;;;;;;47.95;20.15;;;5.80;99.90;;;;;;5055895;28;20055;-75
2023/12/15 06:35:30;;;;;;;50.83;21.88;;;5.80;99.90;;;;;;5070135;28;20056;-76
2023/12/15 06:37:55;;;;;;;49.33;21.60;;;5.90;99.90;;;;;;5050935;28;20041;-76
2023/12/15 06:40:21;;;;;;;51.95;20.80;;;5.90;99.90;;;;;;5061738;28;20040;-76
2023/12/15 06:42:47;;;;;;;54.20;20.85;;;5.90;99.90;;;;;;5067105;28;20048;-76
2023/12/15 06:45:13;;;;;;;52.95;22.08;;;5.90;99.90;;;;;;5071229;28;20068;-77
2023/12/15 06:47:38;;;;;;;56.47;23.35;;;5.80;99.90;;;;;;5064253;28;20044;-76
2023/12/15 06:50:07;;;;;;;62.58;22.92;;;5.80;99.90;;;;;;5050412;28;20044;-75
2023/12/15 06:52:37;;;;;;;56.97;23.30;;;5.80;99.90;;;;;;5059095;28;20052;-76
2023/12/15 06:55:03;;;;;;;53.83;21.55;;;5.80;99.90;;;;;;5068924;28;20051;-75
2023/12/15 06:57:29;;;;;;;51.35;20.67;;;5.80;99.90;;;;;;5056277;28;20041;-75
2023/12/15 06:59:55;;;;;;;47.95;21.05;;;5.80;99.90;;;;;;5056291;28;20053;-76
2023/12/15 07:02:21;;;;;;;51.97;19.92;;;5.80;99.90;;;;;;5064448;28;20119;-76
2023/12/15 07:04:46;;;;;;;46.42;20.77;;;5.80;99.90;;;;;;5053425;28;20507;-74
2023/12/15 07:07:12;;;;;;;42.92;18.38;;;5.70;99.90;;;;;;5072357;28;20044;-74
2023/12/15 07:09:38;;;;;;;65.60;22.05;;;5.70;99.90;;;;;;5066342;28;20036;-75
2023/12/15 07:12:04;;;;;;;47.33;19.50;;;5.70;99.90;;;;;;5062000;28;20128;-74
2023/12/15 07:14:30;;;;;;;56.28;22.13;;;5.70;99.90;;;;;;5052270;28;20049;-74
2023/12/15 07:16:55;;;;;;;60.67;21.48;;;5.70;99.90;;;;;;5034454;28;20044;-73
2023/12/15 07:19:21;;;;;;;45.75;19.77;;;5.70;99.90;;;;;;5064293;28;20049;-75
2023/12/15 07:21:47;;;;;;;54.58;21.83;;;5.70;99.90;;;;;;5055849;28;20125;-75
2023/12/15 07:24:12;;;;;;;60.13;20.95;;;5.80;99.90;;;;;;5071070;28;20048;-76
2023/12/15 07:26:38;;;;;;;51.95;20.92;;;5.80;99.90;;;;;;5069961;28;20052;-75
2023/12/15 07:29:05;;;;;;;61.50;21.75;;;5.80;99.90;;;;;;5061177;28;20048;-74
2023/12/15 07:31:30;;;;;;;50.88;19.98;;;5.80;99.90;;;;;;5060421;28;20075;-75
2023/12/15 07:33:56;;;;;;;53.90;19.65;;;5.80;99.90;;;;;;5051339;28;20072;-74
2023/12/15 07:36:22;;;;;;;56.63;20.27;;;5.70;99.90;;;;;;5048669;28;20412;-77
2023/12/15 07:38:48;;;;;;;50.65;19.58;;;5.70;99.90;;;;;;5056122;28;20123;-77
2023/12/15 07:41:14;;;;;;;49.47;19.00;;;5.70;99.90;;;;;;5062467;28;20045;-75
2023/12/15 07:43:40;;;;;;;61.53;20.20;;;5.70;99.90;;;;;;5061467;28;20503;-75
2023/12/15 07:46:18;;;;;;;47.88;18.30;;;5.70;99.90;;;;;;5069805;28;20044;-75
2023/12/15 07:48:44;;;;;;;46.28;18.25;;;5.70;99.90;;;;;;5053429;28;20057;-76
2023/12/15 07:51:17;;;;;;;46.47;17.88;;;5.60;99.90;;;;;;5069031;28;20048;-75
2023/12/15 07:53:43;;;;;;;48.05;19.02;;;5.60;99.90;;;;;;5064419;28;20224;-75
2023/12/15 07:56:09;;;;;;;52.88;18.75;;;6.70;99.90;;;;;;5059829;28;20064;-75
2023/12/15 07:58:34;;;;;;;44.50;17.52;;;5.60;99.90;;;;;;5068193;28;20043;-75
2023/12/15 08:01:00;;;;;;;51.35;18.60;;;5.60;99.90;;;;;;5060971;28;20048;-76
2023/12/15 08:03:26;;;;;;;47.67;17.80;;;5.60;99.90;;;;;;5053459;28;20391;-75
2023/12/15 08:05:51;;;;;;;53.28;19.25;;;5.60;99.90;;;;;;5067010;28;20045;-74
2023/12/15 08:08:17;;;;;;;34.90;14.57;;;5.60;99.90;;;;;;5070729;28;20048;-77
2023/12/15 08:10:43;;;;;;;49.58;19.88;;;5.60;99.90;;;;;;5056612;28;20037;-76
2023/12/15 08:13:12;;;;;;;48.65;16.85;;;5.60;99.90;;;;;;5052694;28;20041;-75
2023/12/15 08:15:38;;;;;;;49.63;19.00;;;5.60;99.90;;;;;;5065394;28;21719;-75
2023/12/15 08:18:04;;;;;;;57.42;18.85;;;5.60;99.90;;;;;;5064124;28;20056;-75
2023/12/15 08:20:30;;;;;;;51.42;16.88;;;5.70;99.90;;;;;;5070732;28;20421;-75
2023/12/15 08:22:55;;;;;;;45.00;16.58;;;5.70;99.90;;;;;;5059030;28;20504;-74
2023/12/15 08:25:21;;;;;;;45.67;17.80;;;5.70;99.90;;;;;;5051219;28;20044;-75
2023/12/15 08:27:47;;;;;;;48.72;17.63;;;5.70;99.90;;;;;;5053205;28;20043;-74
2023/12/15 08:30:12;;;;;;;49.25;16.73;;;5.70;99.90;;;;;;5051074;28;20041;-76
2023/12/15 08:32:38;;;;;;;50.22;16.77;;;5.80;99.90;;;;;;5059310;28;20097;-75
2023/12/15 08:35:04;;;;;;;50.83;17.42;;;5.80;99.90;;;;;;5057314;28;20045;-74
2023/12/15 08:37:30;;;;;;;38.47;16.45;;;5.80;99.90;;;;;;5053420;28;20051;-74
2023/12/15 08:39:56;;;;;;;52.53;17.58;;;5.90;99.90;;;;;;5067023;28;20048;-75
2023/12/15 08:42:21;;;;;;;41.45;15.73;;;5.90;99.90;;;;;;5061662;28;20068;-75
2023/12/15 08:44:47;;;;;;;44.25;17.08;;;5.90;99.90;;;;;;5054059;28;20056;-73
2023/12/15 08:47:13;;;;;;;44.40;16.27;;;6.00;99.90;;;;;;5054882;28;20658;-75
2023/12/15 08:49:38;;;;;;;54.35;17.77;;;6.00;99.90;;;;;;5071676;28;20059;-75
2023/12/15 08:52:05;;;;;;;43.88;15.93;;;6.00;99.90;;;;;;5057893;28;20119;-75
2023/12/15 08:54:31;;;;;;;52.22;15.43;;;6.00;99.90;;;;;;5063287;28;20052;-74
2023/12/15 08:56:56;;;;;;;53.33;16.48;;;6.10;99.90;;;;;;5065670;28;20048;-75
2023/12/15 08:59:22;;;;;;;37.22;13.98;;;6.10;99.90;;;;;;5073266;28;20194;-75
2023/12/15 09:01:48;;;;;;;39.50;14.70;;;6.10;99.90;;;;;;5070575;28;20040;-75
2023/12/15 09:04:14;;;;;;;40.28;14.73;;;6.20;99.90;;;;;;5073223;28;20044;-74
2023/12/15 09:06:40;;;;;;;38.72;13.90;;;6.20;99.90;;;;;;5057483;28;20147;-73
2023/12/15 09:09:07;;;;;;;46.60;13.75;;;6.20;99.90;;;;;;5058853;28;20033;-76
2023/12/15 09:11:33;;;;;;;37.13;14.15;;;6.30;99.90;;;;;;5065427;28;20041;-76
2023/12/15 09:14:01;;;;;;;40.53;13.65;;;6.20;99.90;;;;;;5064996;28;20049;-74
2023/12/15 09:16:27;;;;;;;42.97;14.45;;;6.30;99.90;;;;;;5054224;28;20067;-74
2023/12/15 09:18:52;;;;;;;40.20;13.20;;;6.30;99.90;;;;;;5067495;28;20520;-75
2023/12/15 09:21:19;;;;;;;37.38;12.95;;;6.30;99.90;;;;;;5054472;28;20116;-75
2023/12/15 09:23:44;;;;;;;31.73;13.40;;;6.30;99.90;;;;;;5053735;28;20095;-75
2023/12/15 09:26:10;;;;;;;35.67;12.57;;;6.30;99.90;;;;;;5052207;28;20442;-74
2023/12/15 09:28:36;;;;;;;34.78;11.82;;;6.30;99.90;;;;;;5052014;28;20428;-75
2023/12/15 09:31:01;;;;;;;33.20;11.75;;;6.30;99.90;;;;;;5059373;28;20178;-74
2023/12/15 09:33:27;;;;;;;33.42;11.18;;;6.30;99.90;;;;;;5059767;28;20071;-76
2023/12/15 09:35:54;;;;;;;38.63;12.25;;;6.40;99.90;;;;;;5069702;28;20101;-76
2023/12/15 09:38:20;;;;;;;47.42;11.73;;;6.40;99.90;;;;;;5066208;28;20047;-75
2023/12/15 09:40:46;;;;;;;33.20;11.25;;;6.40;99.90;;;;;;5061813;28;20052;-73
2023/12/15 09:43:12;;;;;;;39.03;12.18;;;6.50;99.90;;;;;;5056820;28;21053;-74
2023/12/15 09:45:37;;;;;;;36.28;10.98;;;6.50;99.90;;;;;;5061602;28;20052;-77
2023/12/15 09:48:04;;;;;;;44.70;11.80;;;6.50;99.90;;;;;;5060535;28;20044;-75
2023/12/15 09:50:32;;;;;;;35.25;10.20;;;6.50;99.90;;;;;;5062273;28;20115;-75
2023/12/15 09:52:58;;;;;;;56.13;11.50;;;6.60;99.90;;;;;;5056555;28;20052;-76
2023/12/15 09:55:29;;;;;;;42.30;11.35;;;6.60;99.90;;;;;;5056347;28;20479;-75
2023/12/15 09:57:56;;;;;;;34.65;10.82;;;6.60;99.90;;;;;;5063853;28;20052;-75
2023/12/15 10:00:22;;;;;;;32.13;9.77;;;6.80;99.90;;;;;;5064712;28;20755;-75
2023/12/15 10:02:47;;;;;;;28.73;9.15;;;6.70;99.90;;;;;;5058850;28;20048;-76
2023/12/15 10:05:14;;;;;;;26.83;9.60;;;6.70;99.90;;;;;;5055893;28;20053;-76
2023/12/15 10:07:40;;;;;;;33.72;8.80;;;6.70;99.90;;;;;;5068778;28;20052;-79
2023/12/15 10:10:06;;;;;;;34.90;10.25;;;6.70;99.90;;;;;;5066290;28;20033;-75
2023/12/15 10:12:31;;;;;;;34.00;9.00;;;6.70;99.90;;;;;;5059054;28;20037;-78
2023/12/15 10:14:57;;;;;;;31.65;9.23;;;6.80;99.90;;;;;;5061131;28;20110;-75
2023/12/15 10:17:23;;;;;;;32.35;9.90;;;6.80;99.90;;;;;;5063806;28;20583;-76
2023/12/15 10:19:48;;;;;;;36.63;9.40;;;6.90;99.90;;;;;;5067376;28;20083;-75
2023/12/15 10:22:14;;;;;;;34.95;8.95;;;6.90;99.90;;;;;;5064858;28;20123;-75
2023/12/15 10:24:40;;;;;;;31.90;9.27;;;6.90;99.90;;;;;;5061500;28;20068;-76
2023/12/15 10:27:08;;;;;;;33.53;8.80;;;6.90;99.90;;;;;;5063691;28;20048;-76
2023/12/15 10:29:37;;;;;;;31.85;8.75;;;6.90;99.90;;;;;;5061352;28;20044;-75
2023/12/15 10:32:05;;;;;;;28.73;8.40;;;6.90;99.90;;;;;;5061349;28;20084;-75
2023/12/15 10:34:31;;;;;;;32.00;8.57;;;7.00;99.90;;;;;;5056214;28;20098;-75
2023/12/15 10:36:57;;;;;;;24.83;7.53;;;7.00;99.90;;;;;;5058010;28;20052;-75
2023/12/15 10:39:24;;;;;;;29.85;7.72;;;7.30;99.90;;;;;;5057837;28;20052;-75
2023/12/15 10:41:51;;;;;;;30.92;7.90;;;7.00;99.90;;;;;;5065308;28;20044;-75
2023/12/15 10:44:20;;;;;;;32.22;7.90;;;7.00;99.90;;;;;;5060442;28;20052;-76
2023/12/15 10:46:47;;;;;;;23.45;7.43;;;7.00;99.90;;;;;;5067803;28;20040;-75
2023/12/15 10:49:13;;;;;;;29.73;7.68;;;7.10;99.90;;;;;;5063563;28;20056;-76
2023/12/15 10:51:40;;;;;;;28.42;7.28;;;7.10;99.90;;;;;;5059030;28;20382;-75
2023/12/15 10:54:07;;;;;;;34.60;7.88;;;7.10;99.90;;;;;;5058501;28;20068;-76
2023/12/15 10:56:33;;;;;;;30.20;7.82;;;7.20;99.90;;;;;;5062469;28;20472;-76
2023/12/15 10:58:59;;;;;;;33.92;7.30;;;7.10;99.90;;;;;;5058601;28;20846;-75
2023/12/15 11:01:29;;;;;;;24.17;7.80;;;7.20;99.90;;;;;;5057289;28;20510;-75
2023/12/15 11:03:54;;;;;;;43.03;8.90;;;7.30;99.90;;;;;;5056975;28;20091;-76
2023/12/15 11:06:36;;;;;;;35.15;7.60;;;7.30;99.90;;;;;;5063100;28;20036;-76
2023/12/15 11:09:07;;;;;;;34.10;6.45;;;7.30;99.90;;;;;;5058939;28;20604;-74
2023/12/15 11:11:33;;;;;;;37.38;7.70;;;7.20;99.90;;;;;;5061418;28;20044;-76
2023/12/15 11:14:01;;;;;;;24.40;7.43;;;7.30;99.90;;;;;;5059436;28;20045;-74
2023/12/15 11:16:36;;;;;;;30.60;7.35;;;7.30;99.90;;;;;;5063109;28;20040;-73
2023/12/15 11:19:02;;;;;;;30.30;7.45;;;7.30;99.90;;;;;;5064950;28;20481;-74
2023/12/15 11:21:29;;;;;;;29.05;6.78;;;7.30;99.90;;;;;;5056779;28;20056;-75
2023/12/15 11:24:03;;;;;;;36.28;7.75;;;7.30;99.90;;;;;;5063756;28;20056;-74
2023/12/15 11:26:41;;;;;;;31.42;7.45;;;7.30;99.90;;;;;;5063407;28;20057;-74
2023/12/15 11:29:15;;;;;;;33.08;8.00;;;7.30;99.90;;;;;;5058680;28;20048;-74
2023/12/15 11:31:40;;;;;;;38.00;8.00;;;7.40;99.90;;;;;;5055776;28;20357;-74
2023/12/15 11:34:07;;;;;;;36.50;8.73;;;7.30;99.90;;;;;;5054044;28;20074;-74
2023/12/15 11:36:41;;;;;;;31.15;9.43;;;7.40;99.90;;;;;;5057809;28;20392;-75
2023/12/15 11:39:12;;;;;;;34.35;7.78;;;7.40;99.90;;;;;;5053079;28;20097;-76
2023/12/15 11:41:38;;;;;;;31.08;7.93;;;7.50;99.90;;;;;;5059694;28;20047;-76
2023/12/15 11:44:05;;;;;;;38.95;7.93;;;7.50;99.90;;;;;;5061696;28;20419;-74
2023/12/15 11:46:33;;;;;;;27.10;8.10;;;7.60;99.90;;;;;;5054788;28;20103;-75
2023/12/15 11:49:00;;;;;;;31.00;7.57;;;7.60;99.90;;;;;;5060663;28;20064;-75
2023/12/15 11:51:28;;;;;;;29.15;7.53;;;7.70;99.90;;;;;;5054667;28;20048;-76
2023/12/15 11:53:55;;;;;;;27.67;7.55;;;7.90;99.90;;;;;;5059620;28;20057;-75
2023/12/15 11:56:20;;;;;;;36.50;7.35;;;7.80;99.90;;;;;;5063451;28;20040;-74
2023/12/15 11:58:47;;;;;;;29.88;7.13;;;7.80;99.90;;;;;;5063177;28;20041;-76
2023/12/15 12:01:15;;;;;;;29.40;5.82;;;7.90;99.90;;;;;;5053222;28;20041;-76
2023/12/15 12:03:44;;;;;;;32.03;7.05;;;8.00;99.90;;;;;;5061045;28;20051;-75
2023/12/15 12:06:10;;;;;;;25.77;6.72;;;8.10;99.90;;;;;;5056186;28;20044;-75
2023/12/15 12:08:36;;;;;;;27.20;5.97;;;8.50;99.90;;;;;;5061938;28;20040;-75
2023/12/15 12:11:04;;;;;;;27.58;5.82;;;8.30;99.90;;;;;;5058311;28;20055;-75
2023/12/15 12:13:32;;;;;;;30.48;5.60;;;8.30;99.90;;;;;;5064861;28;20128;-75
2023/12/15 12:15:58;;;;;;;22.65;5.95;;;8.30;99.90;;;;;;5068247;28;20045;-76
2023/12/15 12:18:25;;;;;;;24.98;6.07;;;8.30;99.90;;;;;;5063769;28;20594;-76
2023/12/15 12:21:01;;;;;;;30.15;7.22;;;8.40;99.90;;;;;;5063277;28;20095;-75
2023/12/15 12:23:29;;;;;;;27.10;6.57;;;8.40;99.90;;;;;;5064070;28;20049;-75
2023/12/15 12:25:56;;;;;;;35.97;7.22;;;8.50;99.90;;;;;;5067610;28;20132;-75
2023/12/15 12:28:23;;;;;;;27.23;6.25;;;8.50;99.90;;;;;;5063572;28;20056;-76
2023/12/15 12:30:49;;;;;;;30.20;5.30;;;8.50;99.90;;;;;;5057596;28;20044;-77
2023/12/15 12:33:15;;;;;;;28.23;5.30;;;8.50;99.90;;;;;;5058804;28;20136;-76